Fairview, Mississippi
Current Conditions -  °F | °C
As of 5:53 AM on Friday 28 Nov 2014 (Local Time) from KTUP Reporting Station
Clear Clear  
Wind Chill: 27°   Ceiling: Unl
Heat Index: 27°   Visibility: 10mi
Dew Point: 24°   Wind: 0mph
Humidity: 89%   Direction: NA
Pressure: 30.44"   Gusts: NA
Location:  34.4864°N, 88.182°W
Report Text: KTUP 281153Z 00000KT 10SM CLR M03/M04 A3044 RMK AO2 SLP310 T10281044 11011 21039 56006 $
Loading
Personal Weather Stations






























Interactive Weather Map New forecast layout! Learn more

10-Day Weather Forecast

Advertisements
Track Severe Weather on mobile